Time;durP1;ratioP1;P1;durP2;ratioP2;P2;SDS_P1;SDS_P2;PMS_P1;PMS_P2;Temp;Humidity;BMP_temperature;BMP_pressure;BME280_temperature;BME280_humidity;BME280_pressure;Samples;Min_cycle;Max_cycle;Signal;HPM_P1;HPM_P2
2023/11/17 00:00:31;0.00;0.00;0.62;0.00;0.00;0.62;7.70;5.17;;;21.90;28.20;;;;;;2265094;61;20375;-59
2023/11/17 00:03:16;0.00;0.00;0.62;0.00;0.00;0.62;7.50;5.70;;;21.90;28.20;;;;;;2264610;61;20906;-60
2023/11/17 00:06:01;0.00;0.00;0.62;0.00;0.00;0.62;6.23;5.07;;;21.90;28.20;;;;;;2264681;61;20406;-60
2023/11/17 00:08:46;0.00;0.00;0.62;0.00;0.00;0.62;6.10;5.10;;;21.90;28.20;;;;;;2264953;61;20409;-60
2023/11/17 00:11:31;0.00;0.00;0.62;0.00;0.00;0.62;5.10;4.50;;;21.90;28.20;;;;;;2265058;61;20359;-58
2023/11/17 00:14:16;0.00;0.00;0.62;0.00;0.00;0.62;7.57;4.90;;;21.90;28.20;;;;;;2264578;61;20364;-61
2023/11/17 00:17:02;0.00;0.00;0.62;0.00;0.00;0.62;6.37;4.43;;;21.90;28.20;;;;;;2264739;61;20407;-61
2023/11/17 00:19:47;0.00;0.00;0.62;0.00;0.00;0.62;6.27;4.60;;;21.80;28.10;;;;;;2264506;61;20419;-61
2023/11/17 00:22:31;0.00;0.00;0.62;0.00;0.00;0.62;5.93;4.73;;;21.80;28.20;;;;;;2264516;61;20452;-60
2023/11/17 00:25:18;0.00;0.00;0.62;0.00;0.00;0.62;5.93;4.83;;;21.80;28.20;;;;;;2264928;61;20676;-63
2023/11/17 00:28:03;0.00;0.00;0.62;0.00;0.00;0.62;5.17;4.23;;;21.80;28.20;;;;;;2264259;61;20364;-63
2023/11/17 00:30:48;0.00;0.00;0.62;0.00;0.00;0.62;6.47;4.43;;;21.80;28.20;;;;;;2264707;61;20470;-62
2023/11/17 00:33:34;0.00;0.00;0.62;0.00;0.00;0.62;5.87;5.00;;;21.80;28.20;;;;;;2264509;61;20410;-59
2023/11/17 00:36:19;0.00;0.00;0.62;0.00;0.00;0.62;4.73;4.13;;;21.80;28.10;;;;;;2263843;61;20368;-60
2023/11/17 00:39:08;0.00;0.00;0.62;0.00;0.00;0.62;5.07;3.70;;;21.80;28.20;;;;;;2264783;61;20893;-60
2023/11/17 00:41:55;0.00;0.00;0.62;0.00;0.00;0.62;5.40;4.33;;;21.80;28.20;;;;;;2264242;61;20367;-60
2023/11/17 00:44:40;0.00;0.00;0.62;0.00;0.00;0.62;5.53;4.00;;;21.80;28.10;;;;;;2262287;61;20958;-59
2023/11/17 00:47:24;0.00;0.00;0.62;0.00;0.00;0.62;5.17;4.00;;;21.80;28.20;;;;;;2266148;61;20341;-60
2023/11/17 00:50:11;0.00;0.00;0.62;0.00;0.00;0.62;5.57;4.00;;;21.80;28.10;;;;;;2265928;61;20449;-57
2023/11/17 00:53:04;0.00;0.00;0.62;0.00;0.00;0.62;5.43;3.50;;;21.80;28.10;;;;;;2265967;61;20348;-56
2023/11/17 00:55:49;0.00;0.00;0.62;0.00;0.00;0.62;4.23;3.40;;;21.80;28.10;;;;;;2266121;61;20348;-61
2023/11/17 00:58:34;0.00;0.00;0.62;0.00;0.00;0.62;5.13;3.87;;;21.80;28.10;;;;;;2265845;61;20359;-57
2023/11/17 01:01:18;0.00;0.00;0.62;0.00;0.00;0.62;4.50;3.60;;;21.80;28.10;;;;;;2266047;61;20452;-57
2023/11/17 01:04:03;0.00;0.00;0.62;0.00;0.00;0.62;4.23;3.63;;;21.70;28.00;;;;;;2264475;61;21084;-58
2023/11/17 01:06:53;0.00;0.00;0.62;0.00;0.00;0.62;4.47;3.30;;;21.70;28.10;;;;;;2265716;61;20356;-56
2023/11/17 01:09:38;0.00;0.00;0.62;0.00;0.00;0.62;5.20;3.70;;;21.70;28.10;;;;;;2269260;55;20470;-60
2023/11/17 01:12:23;0.00;0.00;0.62;0.00;0.00;0.62;3.60;3.10;;;21.70;28.00;;;;;;2262680;61;20897;-57
2023/11/17 01:15:10;0.00;0.00;0.62;0.00;0.00;0.62;5.37;3.57;;;21.70;28.00;;;;;;2263058;61;20444;-63
2023/11/17 01:17:55;0.00;0.00;0.62;0.00;0.00;0.62;4.47;3.30;;;21.70;28.00;;;;;;2262863;61;20391;-64
2023/11/17 01:20:40;0.00;0.00;0.62;0.00;0.00;0.62;4.73;3.80;;;21.70;28.00;;;;;;2262972;61;20385;-58
2023/11/17 01:23:28;0.00;0.00;0.62;0.00;0.00;0.62;4.10;3.07;;;21.70;28.10;;;;;;2258714;61;20338;-60
2023/11/17 01:26:13;0.00;0.00;0.62;0.00;0.00;0.62;3.60;3.10;;;21.70;28.00;;;;;;2258351;61;20897;-60
2023/11/17 01:28:57;0.00;0.00;0.62;0.00;0.00;0.62;3.90;2.97;;;21.70;28.10;;;;;;2258781;61;20377;-59
2023/11/17 01:31:42;0.00;0.00;0.62;0.00;0.00;0.62;3.80;3.03;;;21.70;28.00;;;;;;2261910;61;20356;-59
2023/11/17 01:34:27;0.00;0.00;0.62;0.00;0.00;0.62;4.83;3.23;;;21.70;28.00;;;;;;2261952;61;20368;-59
2023/11/17 01:37:12;0.00;0.00;0.62;0.00;0.00;0.62;3.73;2.93;;;21.70;28.00;;;;;;2258952;61;20942;-60
2023/11/17 01:39:58;0.00;0.00;0.62;0.00;0.00;0.62;3.73;2.60;;;21.70;28.00;;;;;;2262089;61;20432;-60
2023/11/17 01:42:42;0.00;0.00;0.62;0.00;0.00;0.62;2.80;2.20;;;21.70;28.00;;;;;;2258346;61;20357;-57
2023/11/17 01:45:28;0.00;0.00;0.62;0.00;0.00;0.62;3.30;2.50;;;21.60;27.90;;;;;;2262100;61;20484;-59
2023/11/17 01:48:13;0.00;0.00;0.62;0.00;0.00;0.62;3.43;2.77;;;21.70;28.00;;;;;;2258071;61;20349;-60
2023/11/17 01:50:58;0.00;0.00;0.62;0.00;0.00;0.62;2.30;1.90;;;21.70;28.00;;;;;;2257876;61;20397;-59
2023/11/17 01:53:43;0.00;0.00;0.62;0.00;0.00;0.62;3.57;2.90;;;21.60;28.00;;;;;;2254645;61;20358;-56
2023/11/17 01:56:30;0.00;0.00;0.62;0.00;0.00;0.62;3.30;2.60;;;21.60;27.90;;;;;;2254429;61;20353;-60
2023/11/17 01:59:15;0.00;0.00;0.62;0.00;0.00;0.62;3.20;2.37;;;21.60;27.90;;;;;;2254618;61;20420;-66
2023/11/17 02:02:00;0.00;0.00;0.62;0.00;0.00;0.62;3.57;2.30;;;21.60;27.90;;;;;;2254493;61;20381;-57
2023/11/17 02:04:46;0.00;0.00;0.62;0.00;0.00;0.62;3.57;2.37;;;21.60;27.90;;;;;;2257703;61;20876;-59
2023/11/17 02:07:39;0.00;0.00;0.62;0.00;0.00;0.62;2.70;2.10;;;21.60;27.90;;;;;;2254724;61;20369;-58
2023/11/17 02:10:35;0.00;0.00;0.62;0.00;0.00;0.62;3.87;2.77;;;21.60;27.90;;;;;;2254002;61;20452;-58
2023/11/17 02:13:27;0.00;0.00;0.62;0.00;0.00;0.62;3.17;2.23;;;21.60;27.90;;;;;;2254702;61;20376;-58
2023/11/17 02:16:17;0.00;0.00;0.62;0.00;0.00;0.62;3.57;2.40;;;21.60;27.90;;;;;;2254822;61;20370;-60
2023/11/17 02:19:15;0.00;0.00;0.62;0.00;0.00;0.62;2.73;2.10;;;21.60;27.90;;;;;;2269706;58;20420;-61
2023/11/17 02:22:04;0.00;0.00;0.62;0.00;0.00;0.62;3.03;2.10;;;21.60;27.90;;;;;;2258406;61;20783;-60
2023/11/17 02:25:01;0.00;0.00;0.62;0.00;0.00;0.62;3.37;2.40;;;21.60;27.90;;;;;;2256269;61;20377;-59
2023/11/17 02:27:59;0.00;0.00;0.62;0.00;0.00;0.62;3.20;2.23;;;21.60;27.90;;;;;;2259837;61;20366;-60
2023/11/17 02:30:55;0.00;0.00;0.62;0.00;0.00;0.62;2.60;2.00;;;21.50;27.90;;;;;;2254432;61;20393;-60
2023/11/17 02:33:41;0.00;0.00;0.62;0.00;0.00;0.62;4.03;2.37;;;21.50;27.80;;;;;;2259924;61;20769;-59
2023/11/17 02:36:26;0.00;0.00;0.62;0.00;0.00;0.62;2.20;1.73;;;21.50;27.80;;;;;;2260088;61;20397;-59
2023/11/17 02:39:14;0.00;0.00;0.62;0.00;0.00;0.62;2.97;2.00;;;21.50;27.80;;;;;;2254548;61;20666;-58
2023/11/17 02:42:00;0.00;0.00;0.62;0.00;0.00;0.62;2.30;1.87;;;21.50;27.80;;;;;;2257342;61;20453;-58
2023/11/17 02:44:45;0.00;0.00;0.62;0.00;0.00;0.62;2.70;1.83;;;21.50;27.90;;;;;;2257827;61;20405;-61
2023/11/17 02:47:35;0.00;0.00;0.62;0.00;0.00;0.62;2.40;1.67;;;21.50;27.80;;;;;;2259799;61;20493;-58
2023/11/17 02:50:22;0.00;0.00;0.62;0.00;0.00;0.62;2.97;2.30;;;21.50;27.80;;;;;;2257836;61;20456;-57
2023/11/17 02:53:23;0.00;0.00;0.62;0.00;0.00;0.62;3.40;2.13;;;21.50;27.80;;;;;;2257853;61;20358;-58
2023/11/17 02:56:09;0.00;0.00;0.62;0.00;0.00;0.62;3.00;1.87;;;21.50;27.80;;;;;;2259766;61;20868;-55
2023/11/17 02:58:54;0.00;0.00;0.62;0.00;0.00;0.62;2.80;1.73;;;21.50;27.80;;;;;;2260084;61;20346;-58
2023/11/17 03:01:39;0.00;0.00;0.62;0.00;0.00;0.62;2.30;1.77;;;21.50;27.80;;;;;;2257576;61;20351;-59
2023/11/17 03:04:26;0.00;0.00;0.62;0.00;0.00;0.62;2.93;2.17;;;21.50;27.80;;;;;;2257401;61;20434;-58
2023/11/17 03:07:15;0.00;0.00;0.62;0.00;0.00;0.62;2.43;1.63;;;21.50;27.80;;;;;;2257449;61;20416;-60
2023/11/17 03:09:59;0.00;0.00;0.62;0.00;0.00;0.62;2.20;1.60;;;21.50;27.80;;;;;;2257581;61;20466;-60
2023/11/17 03:12:44;0.00;0.00;0.62;0.00;0.00;0.62;2.40;1.60;;;21.40;27.80;;;;;;2254147;61;20370;-59
2023/11/17 03:15:28;0.00;0.00;0.62;0.00;0.00;0.62;2.73;1.60;;;21.40;27.80;;;;;;2259975;61;20997;-56
2023/11/17 03:18:13;0.00;0.00;0.62;0.00;0.00;0.62;2.90;2.03;;;21.50;27.80;;;;;;2259631;61;20450;-55
2023/11/17 03:21:01;0.00;0.00;0.62;0.00;0.00;0.62;2.20;1.50;;;21.50;28.30;;;;;;2259675;61;20391;-59
2023/11/17 03:23:46;0.00;0.00;0.62;0.00;0.00;0.62;2.57;2.10;;;21.40;28.30;;;;;;2261601;61;20345;-60
2023/11/17 03:26:31;0.00;0.00;0.62;0.00;0.00;0.62;2.17;1.67;;;21.40;27.70;;;;;;2261425;61;20352;-60
2023/11/17 03:29:15;0.00;0.00;0.62;0.00;0.00;0.62;2.77;1.60;;;21.40;27.70;;;;;;2261503;61;20903;-60
2023/11/17 03:32:00;0.00;0.00;0.62;0.00;0.00;0.62;2.23;1.57;;;21.40;28.20;;;;;;2261340;61;20417;-61
2023/11/17 03:34:46;0.00;0.00;0.62;0.00;0.00;0.62;2.53;1.60;;;21.40;27.70;;;;;;2261995;61;20468;-59
2023/11/17 03:37:33;0.00;0.00;0.62;0.00;0.00;0.62;2.40;1.60;;;21.40;27.80;;;;;;2259062;61;20460;-57
2023/11/17 03:40:18;0.00;0.00;0.62;0.00;0.00;0.62;2.17;1.40;;;21.40;27.70;;;;;;2261801;61;20423;-57
2023/11/17 03:43:02;0.00;0.00;0.62;0.00;0.00;0.62;2.57;1.90;;;21.40;27.70;;;;;;2259052;61;20419;-59
2023/11/17 03:45:48;0.00;0.00;0.62;0.00;0.00;0.62;2.43;1.53;;;21.40;27.70;;;;;;2262325;61;20906;-59
2023/11/17 03:48:32;0.00;0.00;0.62;0.00;0.00;0.62;2.00;1.47;;;21.40;27.80;;;;;;2258911;61;20354;-60
2023/11/17 03:51:18;0.00;0.00;0.62;0.00;0.00;0.62;2.20;1.70;;;21.40;27.70;;;;;;2262016;61;20450;-60
2023/11/17 03:54:05;0.00;0.00;0.62;0.00;0.00;0.62;2.37;1.60;;;21.40;27.70;;;;;;2261911;61;20451;-58
2023/11/17 03:56:52;0.00;0.00;0.62;0.00;0.00;0.62;1.90;1.40;;;21.40;27.70;;;;;;2258842;61;20832;-60
2023/11/17 03:59:37;0.00;0.00;0.62;0.00;0.00;0.62;2.50;1.83;;;21.40;27.70;;;;;;2259115;61;20408;-55
2023/11/17 04:02:22;0.00;0.00;0.62;0.00;0.00;0.62;2.43;1.50;;;21.40;27.70;;;;;;2261968;61;20436;-60
2023/11/17 04:05:13;0.00;0.00;0.62;0.00;0.00;0.62;3.40;1.70;;;21.30;27.70;;;;;;2259152;61;20380;-61
2023/11/17 04:07:57;0.00;0.00;0.62;0.00;0.00;0.62;2.20;1.50;;;21.40;27.70;;;;;;2262158;61;20349;-57
2023/11/17 04:10:45;0.00;0.00;0.62;0.00;0.00;0.62;2.10;1.40;;;21.40;27.70;;;;;;2262074;61;20428;-59
2023/11/17 04:13:35;0.00;0.00;0.62;0.00;0.00;0.62;2.43;1.50;;;21.30;27.70;;;;;;2261790;61;20418;-58
2023/11/17 04:16:20;0.00;0.00;0.62;0.00;0.00;0.62;2.07;1.30;;;21.30;27.70;;;;;;2258900;61;20898;-64
2023/11/17 04:19:05;0.00;0.00;0.62;0.00;0.00;0.62;2.20;1.30;;;21.30;27.70;;;;;;2262318;61;20905;-55
2023/11/17 04:21:50;0.00;0.00;0.62;0.00;0.00;0.62;2.50;1.73;;;21.30;27.70;;;;;;2261971;61;20796;-56
2023/11/17 04:24:34;0.00;0.00;0.62;0.00;0.00;0.62;2.23;1.37;;;21.30;27.70;;;;;;2261741;61;20353;-61
2023/11/17 04:27:20;0.00;0.00;0.62;0.00;0.00;0.62;2.13;1.43;;;21.30;27.70;;;;;;2262043;61;20353;-58
2023/11/17 04:30:07;0.00;0.00;0.62;0.00;0.00;0.62;1.90;1.30;;;21.30;27.70;;;;;;2261921;61;20442;-59
2023/11/17 04:32:52;0.00;0.00;0.62;0.00;0.00;0.62;2.20;1.53;;;21.30;27.70;;;;;;2261357;61;20400;-60
2023/11/17 04:35:37;0.00;0.00;0.62;0.00;0.00;0.62;2.10;1.40;;;21.30;27.70;;;;;;2261852;61;20365;-60
2023/11/17 04:38:22;0.00;0.00;0.62;0.00;0.00;0.62;1.90;1.30;;;21.30;27.70;;;;;;2261735;61;20360;-61
2023/11/17 04:41:06;0.00;0.00;0.62;0.00;0.00;0.62;1.80;1.30;;;21.30;27.70;;;;;;2262051;61;20968;-59
2023/11/17 04:43:52;0.00;0.00;0.62;0.00;0.00;0.62;2.80;1.50;;;21.30;27.70;;;;;;2261943;61;20349;-59
2023/11/17 04:46:37;0.00;0.00;0.62;0.00;0.00;0.62;2.60;1.30;;;21.30;27.70;;;;;;2258854;61;20603;-58
2023/11/17 04:49:21;0.00;0.00;0.62;0.00;0.00;0.62;1.80;1.10;;;21.20;27.70;;;;;;2261855;61;20388;-58
2023/11/17 04:52:06;0.00;0.00;0.62;0.00;0.00;0.62;1.80;1.23;;;21.20;27.70;;;;;;2261821;61;20427;-57
2023/11/17 04:54:51;0.00;0.00;0.62;0.00;0.00;0.62;1.90;1.50;;;21.20;27.70;;;;;;2261803;61;20401;-60
2023/11/17 04:57:36;0.00;0.00;0.62;0.00;0.00;0.62;2.20;1.20;;;21.20;27.70;;;;;;2261876;61;20444;-60
2023/11/17 05:00:23;0.00;0.00;0.62;0.00;0.00;0.62;1.80;1.13;;;21.20;27.70;;;;;;2258590;61;20381;-59
2023/11/17 05:03:07;0.00;0.00;0.62;0.00;0.00;0.62;2.17;1.53;;;21.20;27.70;;;;;;2258401;61;20419;-62
2023/11/17 05:05:52;0.00;0.00;0.62;0.00;0.00;0.62;2.37;1.33;;;21.20;27.70;;;;;;2258844;61;20365;-58
2023/11/17 05:08:37;0.00;0.00;0.62;0.00;0.00;0.62;2.27;1.50;;;21.20;27.70;;;;;;2261724;61;20882;-64
2023/11/17 05:11:23;0.00;0.00;0.62;0.00;0.00;0.62;1.70;1.00;;;21.20;27.70;;;;;;2258960;61;20385;-59
2023/11/17 05:14:08;0.00;0.00;0.62;0.00;0.00;0.62;2.17;1.30;;;21.20;27.70;;;;;;2261979;61;20392;-60
2023/11/17 05:17:05;0.00;0.00;0.62;0.00;0.00;0.62;1.90;1.20;;;21.20;27.70;;;;;;2260707;61;20361;-60
2023/11/17 05:19:50;0.00;0.00;0.62;0.00;0.00;0.62;1.57;1.03;;;21.20;27.70;;;;;;2260827;61;20389;-62
2023/11/17 05:22:36;0.00;0.00;0.62;0.00;0.00;0.62;1.80;1.20;;;21.20;27.70;;;;;;2260597;61;20364;-62
2023/11/17 05:25:21;0.00;0.00;0.62;0.00;0.00;0.62;1.87;1.13;;;21.20;27.70;;;;;;2260743;61;20499;-62
2023/11/17 05:28:08;0.00;0.00;0.62;0.00;0.00;0.62;2.10;1.47;;;21.20;27.70;;;;;;2261005;61;20368;-59
2023/11/17 05:30:55;0.00;0.00;0.62;0.00;0.00;0.62;1.90;1.03;;;21.20;27.70;;;;;;2260549;61;20396;-62
2023/11/17 05:33:41;0.00;0.00;0.62;0.00;0.00;0.62;1.70;1.07;;;21.20;27.70;;;;;;2260900;61;20401;-60
2023/11/17 05:36:26;0.00;0.00;0.62;0.00;0.00;0.62;1.93;1.30;;;21.20;27.70;;;;;;2260875;61;20775;-61
2023/11/17 05:39:12;0.00;0.00;0.62;0.00;0.00;0.62;1.70;1.10;;;21.20;27.70;;;;;;2257537;61;20800;-62
2023/11/17 05:41:56;0.00;0.00;0.62;0.00;0.00;0.62;1.70;1.03;;;21.20;27.70;;;;;;2260683;61;20452;-62
2023/11/17 05:44:42;0.00;0.00;0.62;0.00;0.00;0.62;1.70;1.03;;;21.20;27.70;;;;;;2260954;61;20446;-62
2023/11/17 05:47:26;0.00;0.00;0.62;0.00;0.00;0.62;2.07;1.20;;;21.10;27.70;;;;;;2261061;61;20373;-61
2023/11/17 05:50:12;0.00;0.00;0.62;0.00;0.00;0.62;1.53;1.00;;;21.10;27.70;;;;;;2260656;61;20504;-62
2023/11/17 05:52:56;0.00;0.00;0.62;0.00;0.00;0.62;1.83;1.13;;;21.10;27.70;;;;;;2257068;61;20396;-62
2023/11/17 05:55:41;0.00;0.00;0.62;0.00;0.00;0.62;1.93;1.10;;;21.10;27.70;;;;;;2260834;61;20372;-62
2023/11/17 05:58:27;0.00;0.00;0.62;0.00;0.00;0.62;2.17;1.10;;;21.20;27.70;;;;;;2260983;61;20447;-61
2023/11/17 06:01:13;0.00;0.00;0.62;0.00;0.00;0.62;1.93;1.20;;;21.10;27.70;;;;;;2260744;61;20396;-62
2023/11/17 06:03:58;0.00;0.00;0.62;0.00;0.00;0.62;1.70;1.20;;;21.10;27.70;;;;;;2257641;61;20356;-62
2023/11/17 06:06:44;0.00;0.00;0.62;0.00;0.00;0.62;1.67;1.00;;;21.10;27.70;;;;;;2261010;61;20401;-62
2023/11/17 06:09:30;0.00;0.00;0.62;0.00;0.00;0.62;1.60;0.90;;;21.10;27.70;;;;;;2260558;61;20424;-62
2023/11/17 06:12:15;0.00;0.00;0.62;0.00;0.00;0.62;1.60;1.10;;;21.10;27.70;;;;;;2260552;61;20710;-62
2023/11/17 06:15:01;0.00;0.00;0.62;0.00;0.00;0.62;1.93;1.03;;;21.10;27.70;;;;;;2260562;61;20480;-62
2023/11/17 06:17:46;0.00;0.00;0.62;0.00;0.00;0.62;1.80;1.10;;;21.10;27.70;;;;;;2260875;61;20357;-61
2023/11/17 06:20:33;0.00;0.00;0.62;0.00;0.00;0.62;1.63;1.10;;;21.10;27.70;;;;;;2260761;61;20377;-62
2023/11/17 06:23:19;0.00;0.00;0.62;0.00;0.00;0.62;1.60;1.00;;;21.10;27.70;;;;;;2260254;61;20361;-62
2023/11/17 06:26:04;0.00;0.00;0.62;0.00;0.00;0.62;1.70;1.10;;;21.10;27.70;;;;;;2260845;61;20369;-61
2023/11/17 06:28:49;0.00;0.00;0.62;0.00;0.00;0.62;1.60;1.00;;;21.10;27.70;;;;;;2260857;61;20353;-62
2023/11/17 06:31:33;0.00;0.00;0.62;0.00;0.00;0.62;2.07;1.17;;;21.10;27.70;;;;;;2260246;61;20407;-61
2023/11/17 06:34:21;0.00;0.00;0.62;0.00;0.00;0.62;1.40;0.80;;;21.10;27.70;;;;;;2260889;61;20365;-61
2023/11/17 06:37:07;0.00;0.00;0.62;0.00;0.00;0.62;2.00;1.10;;;21.10;27.70;;;;;;2260303;61;20360;-63
2023/11/17 06:39:54;0.00;0.00;0.62;0.00;0.00;0.62;1.70;1.10;;;21.10;27.70;;;;;;2260800;61;20380;-61
2023/11/17 06:42:40;0.00;0.00;0.62;0.00;0.00;0.62;1.67;1.07;;;21.10;27.70;;;;;;2260324;61;20410;-61
2023/11/17 06:45:25;0.00;0.00;0.62;0.00;0.00;0.62;1.60;1.00;;;21.00;27.60;;;;;;2261006;61;20779;-59
2023/11/17 06:48:09;0.00;0.00;0.62;0.00;0.00;0.62;3.10;1.10;;;21.00;27.60;;;;;;2261574;61;20345;-61
2023/11/17 06:50:56;0.00;0.00;0.62;0.00;0.00;0.62;1.40;0.80;;;21.00;27.70;;;;;;2261390;61;20433;-58
2023/11/17 06:53:40;0.00;0.00;0.62;0.00;0.00;0.62;1.93;1.03;;;21.00;27.70;;;;;;2261114;61;20767;-59
2023/11/17 06:56:26;0.00;0.00;0.62;0.00;0.00;0.62;1.90;1.20;;;21.00;27.60;;;;;;2255488;61;20411;-59
2023/11/17 06:59:12;0.00;0.00;0.62;0.00;0.00;0.62;2.00;1.20;;;21.00;27.70;;;;;;2261213;61;20357;-63
2023/11/17 07:01:56;0.00;0.00;0.62;0.00;0.00;0.62;1.97;1.17;;;21.00;27.70;;;;;;2261340;61;20349;-60
2023/11/17 07:04:42;0.00;0.00;0.62;0.00;0.00;0.62;2.77;1.10;;;21.00;27.70;;;;;;2261539;61;20345;-60
2023/11/17 07:07:27;0.00;0.00;0.62;0.00;0.00;0.62;2.00;1.50;;;21.00;28.20;;;;;;2261177;61;20360;-60
2023/11/17 07:10:14;0.00;0.00;0.62;0.00;0.00;0.62;1.50;0.90;;;21.00;27.70;;;;;;2261188;61;20448;-60
2023/11/17 07:13:00;0.00;0.00;0.62;0.00;0.00;0.62;2.17;1.43;;;21.00;27.70;;;;;;2257780;61;20455;-59
2023/11/17 07:15:44;0.00;0.00;0.62;0.00;0.00;0.62;1.73;1.03;;;21.00;27.70;;;;;;2261307;61;20891;-57
2023/11/17 07:18:29;0.00;0.00;0.62;0.00;0.00;0.62;1.73;1.10;;;21.00;27.70;;;;;;2261400;61;20369;-63
2023/11/17 07:21:14;0.00;0.00;0.62;0.00;0.00;0.62;2.40;1.33;;;21.00;27.70;;;;;;2261198;61;20446;-60
2023/11/17 07:23:58;0.00;0.00;0.62;0.00;0.00;0.62;1.77;1.10;;;21.00;27.70;;;;;;2261318;61;20365;-60
2023/11/17 07:26:45;0.00;0.00;0.62;0.00;0.00;0.62;2.37;1.50;;;21.00;27.70;;;;;;2261486;61;20459;-60
2023/11/17 07:29:31;0.00;0.00;0.62;0.00;0.00;0.62;2.13;1.27;;;21.00;27.70;;;;;;2257853;61;20825;-56
2023/11/17 07:32:16;0.00;0.00;0.62;0.00;0.00;0.62;2.80;1.83;;;21.00;27.70;;;;;;2261125;61;20373;-59
2023/11/17 07:35:01;0.00;0.00;0.62;0.00;0.00;0.62;3.40;1.50;;;21.00;27.70;;;;;;2261705;61;20771;-59
2023/11/17 07:37:45;0.00;0.00;0.62;0.00;0.00;0.62;3.10;1.30;;;21.00;27.70;;;;;;2261092;61;20774;-61
2023/11/17 07:40:30;0.00;0.00;0.62;0.00;0.00;0.62;2.10;1.37;;;21.00;27.70;;;;;;2261435;61;20385;-58
2023/11/17 07:43:15;0.00;0.00;0.62;0.00;0.00;0.62;2.73;1.77;;;21.00;27.70;;;;;;2260951;61;20416;-61
2023/11/17 07:46:01;0.00;0.00;0.62;0.00;0.00;0.62;2.40;1.73;;;21.00;27.70;;;;;;2261499;61;20384;-60
2023/11/17 07:48:46;0.00;0.00;0.62;0.00;0.00;0.62;2.17;1.40;;;21.00;27.70;;;;;;2261233;61;20361;-59
2023/11/17 07:51:33;0.00;0.00;0.62;0.00;0.00;0.62;2.27;1.60;;;21.00;27.70;;;;;;2262080;61;20344;-57
2023/11/17 07:54:19;0.00;0.00;0.62;0.00;0.00;0.62;3.47;1.90;;;21.00;27.70;;;;;;2265349;61;20364;-60
2023/11/17 07:57:05;0.00;0.00;0.62;0.00;0.00;0.62;2.70;1.40;;;21.00;27.70;;;;;;2265538;61;20366;-57
2023/11/17 07:59:50;0.00;0.00;0.62;0.00;0.00;0.62;2.37;1.60;;;21.00;27.70;;;;;;2259491;61;20384;-60
2023/11/17 08:02:36;0.00;0.00;0.62;0.00;0.00;0.62;1.87;1.43;;;21.00;27.80;;;;;;2265284;61;20764;-61
2023/11/17 08:05:20;0.00;0.00;0.62;0.00;0.00;0.62;2.33;1.47;;;21.00;27.70;;;;;;2265537;61;20988;-56
2023/11/17 08:08:06;0.00;0.00;0.62;0.00;0.00;0.62;2.30;1.50;;;21.00;27.70;;;;;;2265704;61;20448;-59
2023/11/17 08:10:51;0.00;0.00;0.62;0.00;0.00;0.62;2.57;1.63;;;21.00;27.70;;;;;;2265460;61;20425;-56
2023/11/17 08:13:37;0.00;0.00;0.62;0.00;0.00;0.62;2.03;1.13;;;20.90;27.70;;;;;;2265018;61;20476;-59
2023/11/17 08:16:22;0.00;0.00;0.62;0.00;0.00;0.62;2.30;1.63;;;20.90;27.70;;;;;;2265362;61;20391;-60
2023/11/17 08:19:08;0.00;0.00;0.62;0.00;0.00;0.62;3.27;1.80;;;20.90;27.70;;;;;;2265477;61;20344;-61
2023/11/17 08:21:54;0.00;0.00;0.62;0.00;0.00;0.62;2.20;1.50;;;20.90;27.70;;;;;;2265709;61;20431;-57
2023/11/17 08:24:38;0.00;0.00;0.62;0.00;0.00;0.62;2.80;1.80;;;21.00;27.80;;;;;;2266276;61;20367;-61
2023/11/17 08:27:23;0.00;0.00;0.62;0.00;0.00;0.62;2.33;1.43;;;20.90;27.70;;;;;;2266138;61;20418;-62
2023/11/17 08:30:09;0.00;0.00;0.62;0.00;0.00;0.62;2.80;1.90;;;20.90;27.70;;;;;;2266028;61;20395;-59
2023/11/17 08:32:53;0.00;0.00;0.62;0.00;0.00;0.62;2.17;1.50;;;21.00;27.80;;;;;;2262890;61;20355;-59
2023/11/17 08:35:39;0.00;0.00;0.62;0.00;0.00;0.62;3.30;1.60;;;20.90;27.70;;;;;;2265698;61;20368;-63
2023/11/17 08:38:25;0.00;0.00;0.62;0.00;0.00;0.62;3.70;1.90;;;20.90;27.70;;;;;;2266311;61;20514;-61
2023/11/17 08:41:10;0.00;0.00;0.62;0.00;0.00;0.62;2.80;1.80;;;20.90;27.70;;;;;;2266052;61;20380;-59
2023/11/17 08:43:57;0.00;0.00;0.62;0.00;0.00;0.62;2.60;1.73;;;20.90;27.80;;;;;;2262654;61;20455;-56
2023/11/17 08:46:42;0.00;0.00;0.62;0.00;0.00;0.62;2.60;1.60;;;21.00;27.80;;;;;;2265907;61;20367;-59
2023/11/17 08:49:27;0.00;0.00;0.62;0.00;0.00;0.62;3.20;1.97;;;20.90;27.80;;;;;;2265766;61;20438;-60
2023/11/17 08:52:13;0.00;0.00;0.62;0.00;0.00;0.62;4.00;2.10;;;20.90;27.80;;;;;;2265661;61;20398;-61
2023/11/17 08:54:58;0.00;0.00;0.62;0.00;0.00;0.62;3.97;1.80;;;20.90;27.80;;;;;;2265705;61;20368;-61
2023/11/17 08:57:44;0.00;0.00;0.62;0.00;0.00;0.62;2.73;1.80;;;20.90;27.80;;;;;;2265734;61;20430;-60
2023/11/17 09:00:30;0.00;0.00;0.62;0.00;0.00;0.62;4.10;1.53;;;20.90;27.80;;;;;;2265871;61;20460;-56
2023/11/17 09:03:15;0.00;0.00;0.62;0.00;0.00;0.62;1.80;1.40;;;20.90;27.80;;;;;;2265673;61;20934;-58
2023/11/17 09:06:00;0.00;0.00;0.62;0.00;0.00;0.62;2.80;2.23;;;20.90;27.80;;;;;;2265781;61;20456;-61
2023/11/17 09:08:46;0.00;0.00;0.62;0.00;0.00;0.62;2.73;1.93;;;20.90;27.80;;;;;;2265870;61;20348;-59
2023/11/17 09:11:33;0.00;0.00;0.62;0.00;0.00;0.62;3.07;2.00;;;20.90;27.80;;;;;;2266000;61;20742;-59
2023/11/17 09:14:18;0.00;0.00;0.62;0.00;0.00;0.62;2.40;1.87;;;20.90;27.80;;;;;;2265597;61;20383;-58
2023/11/17 09:17:06;0.00;0.00;0.62;0.00;0.00;0.62;3.03;1.70;;;20.90;27.80;;;;;;2262813;61;20383;-61
2023/11/17 09:19:53;0.00;0.00;0.62;0.00;0.00;0.62;2.47;1.70;;;20.90;27.80;;;;;;2265565;61;20858;-60
2023/11/17 09:22:38;0.00;0.00;0.62;0.00;0.00;0.62;2.13;1.73;;;20.90;27.80;;;;;;2265551;61;20770;-59
2023/11/17 09:25:24;0.00;0.00;0.62;0.00;0.00;0.62;2.20;1.70;;;20.90;27.80;;;;;;2266048;61;20356;-61
2023/11/17 09:28:08;0.00;0.00;0.62;0.00;0.00;0.62;2.10;1.37;;;20.90;27.80;;;;;;2265720;61;20368;-60
2023/11/17 09:30:53;0.00;0.00;0.62;0.00;0.00;0.62;2.93;1.60;;;20.90;27.80;;;;;;2259445;61;20464;-56
2023/11/17 09:33:38;0.00;0.00;0.62;0.00;0.00;0.62;3.40;1.60;;;20.90;27.80;;;;;;2265718;61;20402;-57
2023/11/17 09:36:22;0.00;0.00;0.62;0.00;0.00;0.62;2.37;1.40;;;20.90;27.80;;;;;;2266117;61;20421;-59
2023/11/17 09:39:09;0.00;0.00;0.62;0.00;0.00;0.62;2.33;1.60;;;20.90;27.80;;;;;;2265850;61;20418;-58
2023/11/17 09:41:56;0.00;0.00;0.62;0.00;0.00;0.62;2.17;1.30;;;20.90;27.80;;;;;;2265397;61;20432;-60
2023/11/17 09:44:43;0.00;0.00;0.62;0.00;0.00;0.62;2.47;1.67;;;21.00;27.90;;;;;;2265892;61;20364;-58
2023/11/17 09:47:31;0.00;0.00;0.62;0.00;0.00;0.62;2.40;1.40;;;20.90;27.80;;;;;;2262784;61;20769;-60
2023/11/17 09:50:18;0.00;0.00;0.62;0.00;0.00;0.62;2.63;1.73;;;20.90;27.80;;;;;;2265370;61;20404;-60
2023/11/17 09:53:04;0.00;0.00;0.62;0.00;0.00;0.62;3.33;1.73;;;20.90;27.80;;;;;;2265653;61;20383;-63
2023/11/17 09:55:50;0.00;0.00;0.62;0.00;0.00;0.62;3.60;1.50;;;20.90;27.80;;;;;;2265746;61;20542;-59
2023/11/17 09:58:37;0.00;0.00;0.62;0.00;0.00;0.62;2.30;1.60;;;20.90;27.80;;;;;;2265685;61;20895;-60
2023/11/17 10:01:27;0.00;0.00;0.62;0.00;0.00;0.62;2.67;1.60;;;20.90;27.90;;;;;;2265606;61;20483;-60
2023/11/17 10:04:13;0.00;0.00;0.62;0.00;0.00;0.62;2.57;1.57;;;20.90;27.80;;;;;;2262367;61;20360;-60
2023/11/17 10:06:58;0.00;0.00;0.62;0.00;0.00;0.62;2.60;1.53;;;20.90;27.90;;;;;;2265543;61;20344;-61
2023/11/17 10:09:45;0.00;0.00;0.62;0.00;0.00;0.62;2.20;1.40;;;20.90;27.80;;;;;;2265566;61;20392;-59
2023/11/17 10:12:31;0.00;0.00;0.62;0.00;0.00;0.62;2.83;1.90;;;20.90;27.90;;;;;;2265349;61;20363;-59
2023/11/17 10:15:24;0.00;0.00;0.62;0.00;0.00;0.62;2.00;1.63;;;20.90;27.90;;;;;;2265833;61;20356;-58
2023/11/17 10:18:13;0.00;0.00;0.62;0.00;0.00;0.62;2.50;1.43;;;21.00;27.90;;;;;;2266101;61;20750;-57
2023/11/17 10:20:58;0.00;0.00;0.62;0.00;0.00;0.62;1.90;1.40;;;20.90;27.80;;;;;;2262882;61;20980;-54
2023/11/17 10:23:45;0.00;0.00;0.62;0.00;0.00;0.62;2.53;1.70;;;21.00;27.90;;;;;;2265933;61;20387;-53
2023/11/17 10:26:31;0.00;0.00;0.62;0.00;0.00;0.62;3.60;2.03;;;21.00;27.90;;;;;;2266091;61;20373;-54
2023/11/17 10:29:15;0.00;0.00;0.62;0.00;0.00;0.62;2.33;1.70;;;20.90;27.80;;;;;;2266076;61;20360;-58
2023/11/17 10:32:03;0.00;0.00;0.62;0.00;0.00;0.62;2.77;1.73;;;21.00;27.90;;;;;;2265597;61;20363;-60
2023/11/17 10:35:11;0.00;0.00;0.62;0.00;0.00;0.62;2.43;1.40;;;21.00;27.90;;;;;;2265579;61;20394;-61
2023/11/17 10:37:56;0.00;0.00;0.62;0.00;0.00;0.62;2.80;1.97;;;20.90;27.90;;;;;;2265808;61;20917;-61
2023/11/17 10:43:26;0.00;0.00;0.62;0.00;0.00;0.62;2.87;1.53;;;21.00;27.90;;;;;;2267665;61;20395;-60
2023/11/17 10:46:11;0.00;0.00;0.62;0.00;0.00;0.62;2.67;1.53;;;21.00;27.90;;;;;;2266171;61;20414;-62
2023/11/17 10:48:58;0.00;0.00;0.62;0.00;0.00;0.62;2.20;1.60;;;21.00;27.90;;;;;;2265643;61;20360;-56
2023/11/17 10:51:46;0.00;0.00;0.62;0.00;0.00;0.62;2.50;1.70;;;21.00;27.90;;;;;;2261434;61;20408;-61
2023/11/17 10:54:33;0.00;0.00;0.62;0.00;0.00;0.62;2.70;1.70;;;21.00;27.90;;;;;;2261745;61;20954;-60
2023/11/17 10:57:20;0.00;0.00;0.62;0.00;0.00;0.62;2.40;1.70;;;21.00;27.90;;;;;;2261480;61;20400;-60